sensor_id;sensor_type;location;lat;lon;timestamp;pressure;altitude;pressure_sealevel;temperature;humidity
27425;BME280;15244;49.088;11.886;2023-03-23T00:04:58;95277.91;;;14.95;39.76
27425;BME280;15244;49.088;11.886;2023-03-23T00:10:02;95269.31;;;14.93;39.76
27425;BME280;15244;49.088;11.886;2023-03-23T00:15:07;95268.63;;;14.89;39.73
27425;BME280;15244;49.088;11.886;2023-03-23T00:20:08;95264.03;;;14.82;39.92
27425;BME280;15244;49.088;11.886;2023-03-23T00:25:11;95266.50;;;14.77;39.83
27425;BME280;15244;49.088;11.886;2023-03-23T00:30:12;95270.88;;;14.74;40.15
27425;BME280;15244;49.088;11.886;2023-03-23T00:35:17;95268.53;;;14.72;40.11
27425;BME280;15244;49.088;11.886;2023-03-23T00:40:17;95261.50;;;14.71;40.34
27425;BME280;15244;49.088;11.886;2023-03-23T00:45:27;95260.72;;;14.71;40.23
27425;BME280;15244;49.088;11.886;2023-03-23T00:50:31;95252.50;;;14.71;40.53
27425;BME280;15244;49.088;11.886;2023-03-23T00:55:34;95250.94;;;14.70;40.08
27425;BME280;15244;49.088;11.886;2023-03-23T01:00:37;95250.53;;;14.71;40.17
27425;BME280;15244;49.088;11.886;2023-03-23T01:05:39;95258.41;;;14.69;40.43
27425;BME280;15244;49.088;11.886;2023-03-23T01:10:42;95261.22;;;14.66;40.48
27425;BME280;15244;49.088;11.886;2023-03-23T01:15:45;95249.47;;;14.65;40.36
27425;BME280;15244;49.088;11.886;2023-03-23T01:20:51;95246.38;;;14.63;40.23
27425;BME280;15244;49.088;11.886;2023-03-23T01:26:02;95243.22;;;14.65;40.30
27425;BME280;15244;49.088;11.886;2023-03-23T01:31:07;95233.38;;;14.67;40.34
27425;BME280;15244;49.088;11.886;2023-03-23T01:36:14;95230.22;;;14.69;40.12
27425;BME280;15244;49.088;11.886;2023-03-23T01:41:18;95222.38;;;14.67;40.07
27425;BME280;15244;49.088;11.886;2023-03-23T01:46:29;95223.16;;;14.68;39.96
27425;BME280;15244;49.088;11.886;2023-03-23T01:51:39;95221.19;;;14.68;40.33
27425;BME280;15244;49.088;11.886;2023-03-23T01:56:47;95231.03;;;14.66;40.41
27425;BME280;15244;49.088;11.886;2023-03-23T02:01:49;95226.75;;;14.65;40.66
27425;BME280;15244;49.088;11.886;2023-03-23T02:06:57;95233.78;;;14.66;39.83
27425;BME280;15244;49.088;11.886;2023-03-23T02:12:05;95236.88;;;14.68;39.83
27425;BME280;15244;49.088;11.886;2023-03-23T02:17:10;95229.84;;;14.67;39.58
27425;BME280;15244;49.088;11.886;2023-03-23T02:22:45;95227.53;;;14.65;39.46
27425;BME280;15244;49.088;11.886;2023-03-23T02:28:19;95239.25;;;14.66;39.43
27425;BME280;15244;49.088;11.886;2023-03-23T02:39:18;95231.38;;;14.68;39.33
27425;BME280;15244;49.088;11.886;2023-03-23T02:44:22;95232.50;;;14.70;39.24
27425;BME280;15244;49.088;11.886;2023-03-23T02:49:26;95231.34;;;14.71;39.28
27425;BME280;15244;49.088;11.886;2023-03-23T02:54:29;95227.38;;;14.72;39.20
27425;BME280;15244;49.088;11.886;2023-03-23T02:59:30;95220.69;;;14.73;39.20
27425;BME280;15244;49.088;11.886;2023-03-23T03:04:33;95234.41;;;14.73;39.36
27425;BME280;15244;49.088;11.886;2023-03-23T03:09:52;95237.16;;;14.73;39.24
27425;BME280;15244;49.088;11.886;2023-03-23T03:20:06;95227.38;;;14.72;39.33
27425;BME280;15244;49.088;11.886;2023-03-23T03:25:11;95218.38;;;14.72;39.25
27425;BME280;15244;49.088;11.886;2023-03-23T03:30:16;95222.31;;;14.71;39.29
27425;BME280;15244;49.088;11.886;2023-03-23T03:35:22;95222.78;;;14.66;39.42
27425;BME280;15244;49.088;11.886;2023-03-23T03:40:24;95205.16;;;14.67;40.09
27425;BME280;15244;49.088;11.886;2023-03-23T03:45:25;95207.13;;;14.66;40.69
27425;BME280;15244;49.088;11.886;2023-03-23T03:50:29;95197.78;;;14.64;40.81
27425;BME280;15244;49.088;11.886;2023-03-23T03:55:32;95189.59;;;14.60;41.17
27425;BME280;15244;49.088;11.886;2023-03-23T04:00:36;95188.47;;;14.58;40.91
27425;BME280;15244;49.088;11.886;2023-03-23T04:05:40;95197.56;;;14.55;41.39
27425;BME280;15244;49.088;11.886;2023-03-23T04:10:42;95211.28;;;14.55;41.08
27425;BME280;15244;49.088;11.886;2023-03-23T04:15:46;95199.56;;;14.50;41.06
27425;BME280;15244;49.088;11.886;2023-03-23T04:20:54;95209.75;;;14.50;41.05
27425;BME280;15244;49.088;11.886;2023-03-23T04:25:59;95203.91;;;14.48;41.56
27425;BME280;15244;49.088;11.886;2023-03-23T04:31:09;95205.53;;;14.45;41.45
27425;BME280;15244;49.088;11.886;2023-03-23T04:36:15;95213.06;;;14.41;41.43
27425;BME280;15244;49.088;11.886;2023-03-23T04:41:29;95211.50;;;14.40;41.38
27425;BME280;15244;49.088;11.886;2023-03-23T04:46:54;95214.31;;;14.37;41.46
27425;BME280;15244;49.088;11.886;2023-03-23T04:51:56;95201.88;;;14.32;41.53
27425;BME280;15244;49.088;11.886;2023-03-23T04:57:16;95188.25;;;14.28;41.35
27425;BME280;15244;49.088;11.886;2023-03-23T05:02:40;95196.16;;;14.23;41.33
27425;BME280;15244;49.088;11.886;2023-03-23T05:07:48;95203.69;;;14.19;41.49
27425;BME280;15244;49.088;11.886;2023-03-23T05:12:54;95198.63;;;14.17;41.56
27425;BME280;15244;49.088;11.886;2023-03-23T05:17:57;95201.00;;;14.15;41.34
27425;BME280;15244;49.088;11.886;2023-03-23T05:23:00;95210.00;;;14.16;41.54
27425;BME280;15244;49.088;11.886;2023-03-23T05:28:07;95211.97;;;14.15;41.56
27425;BME280;15244;49.088;11.886;2023-03-23T05:33:28;95212.03;;;14.12;41.60
27425;BME280;15244;49.088;11.886;2023-03-23T05:38:51;95208.53;;;14.11;41.62
27425;BME280;15244;49.088;11.886;2023-03-23T05:43:51;95210.84;;;14.13;41.71
27425;BME280;15244;49.088;11.886;2023-03-23T05:49:08;95210.06;;;14.12;41.57
27425;BME280;15244;49.088;11.886;2023-03-23T05:54:16;95207.69;;;14.14;41.74
27425;BME280;15244;49.088;11.886;2023-03-23T05:59:23;95204.53;;;14.16;41.77
27425;BME280;15244;49.088;11.886;2023-03-23T06:04:27;95207.59;;;14.18;41.79
27425;BME280;15244;49.088;11.886;2023-03-23T06:09:41;95209.94;;;14.19;41.81
27425;BME280;15244;49.088;11.886;2023-03-23T06:15:09;95200.88;;;14.22;41.67
27425;BME280;15244;49.088;11.886;2023-03-23T06:20:31;95194.53;;;14.25;41.99
27425;BME280;15244;49.088;11.886;2023-03-23T06:25:39;95192.16;;;14.27;41.96
27425;BME280;15244;49.088;11.886;2023-03-23T06:30:46;95192.94;;;14.28;41.92
27425;BME280;15244;49.088;11.886;2023-03-23T06:35:52;95198.00;;;14.29;42.04
27425;BME280;15244;49.088;11.886;2023-03-23T06:41:13;95194.91;;;14.27;41.99
27425;BME280;15244;49.088;11.886;2023-03-23T06:46:16;95193.28;;;14.30;41.98
27425;BME280;15244;49.088;11.886;2023-03-23T06:51:17;95201.03;;;14.35;42.21
27425;BME280;15244;49.088;11.886;2023-03-23T06:56:23;95192.81;;;14.35;42.11
27425;BME280;15244;49.088;11.886;2023-03-23T07:01:27;95193.16;;;14.37;41.99
27425;BME280;15244;49.088;11.886;2023-03-23T07:06:33;95196.75;;;14.34;42.05
27425;BME280;15244;49.088;11.886;2023-03-23T07:11:40;95193.59;;;14.36;42.07
27425;BME280;15244;49.088;11.886;2023-03-23T07:16:53;95195.91;;;14.37;42.16
27425;BME280;15244;49.088;11.886;2023-03-23T07:21:54;95202.16;;;14.38;42.20
27425;BME280;15244;49.088;11.886;2023-03-23T07:26:58;95198.16;;;14.42;42.42
27425;BME280;15244;49.088;11.886;2023-03-23T07:31:59;95202.75;;;14.49;42.47
27425;BME280;15244;49.088;11.886;2023-03-23T07:37:02;95219.09;;;14.56;42.58
27425;BME280;15244;49.088;11.886;2023-03-23T07:42:05;95209.53;;;14.64;42.60
27425;BME280;15244;49.088;11.886;2023-03-23T07:47:18;95210.22;;;14.68;42.59
27425;BME280;15244;49.088;11.886;2023-03-23T07:52:21;95215.56;;;14.76;42.71
27425;BME280;15244;49.088;11.886;2023-03-23T07:57:25;95229.91;;;14.83;42.61
27425;BME280;15244;49.088;11.886;2023-03-23T08:02:30;95217.66;;;14.88;42.63
27425;BME280;15244;49.088;11.886;2023-03-23T08:07:58;95230.88;;;14.93;42.33
27425;BME280;15244;49.088;11.886;2023-03-23T08:13:22;95241.09;;;14.92;42.60
27425;BME280;15244;49.088;11.886;2023-03-23T08:18:43;95239.13;;;14.93;42.83
27425;BME280;15244;49.088;11.886;2023-03-23T08:24:14;95243.94;;;14.89;42.84
27425;BME280;15244;49.088;11.886;2023-03-23T08:29:46;95239.13;;;14.93;42.95
27425;BME280;15244;49.088;11.886;2023-03-23T08:35:15;95241.88;;;14.93;43.21
27425;BME280;15244;49.088;11.886;2023-03-23T08:40:27;95250.72;;;15.01;43.04
27425;BME280;15244;49.088;11.886;2023-03-23T08:45:47;95246.81;;;15.02;43.18
27425;BME280;15244;49.088;11.886;2023-03-23T08:51:09;95251.22;;;14.95;43.33
27425;BME280;15244;49.088;11.886;2023-03-23T08:56:15;95264.44;;;15.01;43.16
27425;BME280;15244;49.088;11.886;2023-03-23T09:01:44;95268.94;;;15.11;43.16
27425;BME280;15244;49.088;11.886;2023-03-23T09:07:14;95264.94;;;15.15;43.00
27425;BME280;15244;49.088;11.886;2023-03-23T09:12:17;95274.22;;;15.22;42.92
27425;BME280;15244;49.088;11.886;2023-03-23T09:17:18;95272.59;;;15.24;42.99
27425;BME280;15244;49.088;11.886;2023-03-23T09:22:19;95273.28;;;15.28;42.87
27425;BME280;15244;49.088;11.886;2023-03-23T09:27:22;95274.69;;;15.36;42.67
27425;BME280;15244;49.088;11.886;2023-03-23T09:32:30;95277.28;;;15.44;42.44
27425;BME280;15244;49.088;11.886;2023-03-23T09:37:30;95279.47;;;15.52;42.80
27425;BME280;15244;49.088;11.886;2023-03-23T09:47:52;95275.25;;;15.64;42.94
27425;BME280;15244;49.088;11.886;2023-03-23T09:53:10;95274.72;;;15.73;42.98
27425;BME280;15244;49.088;11.886;2023-03-23T10:03:26;95287.69;;;15.89;42.73
27425;BME280;15244;49.088;11.886;2023-03-23T10:08:32;95283.16;;;15.98;42.68
27425;BME280;15244;49.088;11.886;2023-03-23T10:24:17;95277.56;;;16.18;42.05
27425;BME280;15244;49.088;11.886;2023-03-23T10:29:36;95263.94;;;16.28;42.14
27425;BME280;15244;49.088;11.886;2023-03-23T10:35:00;95276.50;;;16.29;42.25
27425;BME280;15244;49.088;11.886;2023-03-23T10:40:06;95275.28;;;16.30;42.31
27425;BME280;15244;49.088;11.886;2023-03-23T10:50:27;95278.22;;;16.68;42.24
27425;BME280;15244;49.088;11.886;2023-03-23T10:55:40;95278.56;;;16.70;42.16
27425;BME280;15244;49.088;11.886;2023-03-23T11:00:46;95274.78;;;16.80;41.90
27425;BME280;15244;49.088;11.886;2023-03-23T11:05:48;95270.09;;;16.94;41.70
27425;BME280;15244;49.088;11.886;2023-03-23T11:10:59;95259.09;;;17.06;41.80
27425;BME280;15244;49.088;11.886;2023-03-23T11:16:00;95263.03;;;17.22;41.56
27425;BME280;15244;49.088;11.886;2023-03-23T11:21:07;95267.88;;;17.30;40.82
27425;BME280;15244;49.088;11.886;2023-03-23T11:26:23;95278.50;;;17.45;41.19
27425;BME280;15244;49.088;11.886;2023-03-23T11:31:31;95281.69;;;17.56;41.03
27425;BME280;15244;49.088;11.886;2023-03-23T11:36:47;95276.28;;;17.52;40.41
27425;BME280;15244;49.088;11.886;2023-03-23T11:41:52;95281.91;;;17.62;40.30
27425;BME280;15244;49.088;11.886;2023-03-23T11:47:30;95270.00;;;17.65;40.15
27425;BME280;15244;49.088;11.886;2023-03-23T11:52:36;95286.09;;;17.66;40.09
27425;BME280;15244;49.088;11.886;2023-03-23T11:57:48;95284.22;;;17.76;39.95
27425;BME280;15244;49.088;11.886;2023-03-23T12:02:56;95269.91;;;17.81;39.78
27425;BME280;15244;49.088;11.886;2023-03-23T12:24:20;95283.81;;;18.03;39.67
27425;BME280;15244;49.088;11.886;2023-03-23T12:29:35;95282.59;;;18.04;39.96
27425;BME280;15244;49.088;11.886;2023-03-23T12:35:05;95276.19;;;18.07;39.69
27425;BME280;15244;49.088;11.886;2023-03-23T12:51:32;95271.00;;;17.96;39.89
27425;BME280;15244;49.088;11.886;2023-03-23T12:56:58;95282.03;;;17.96;40.33
27425;BME280;15244;49.088;11.886;2023-03-23T13:02:13;95264.16;;;18.01;40.04
27425;BME280;15244;49.088;11.886;2023-03-23T13:07:22;95266.38;;;18.06;40.10
27425;BME280;15244;49.088;11.886;2023-03-23T13:12:28;95266.38;;;18.06;40.30
27425;BME280;15244;49.088;11.886;2023-03-23T13:17:37;95255.44;;;18.15;40.41
27425;BME280;15244;49.088;11.886;2023-03-23T13:23:02;95256.06;;;18.19;40.25
27425;BME280;15244;49.088;11.886;2023-03-23T13:28:15;95256.97;;;18.16;40.22
27425;BME280;15244;49.088;11.886;2023-03-23T13:33:25;95265.13;;;18.20;40.24
27425;BME280;15244;49.088;11.886;2023-03-23T13:38:27;95254.41;;;18.22;40.00
27425;BME280;15244;49.088;11.886;2023-03-23T13:43:33;95252.75;;;18.25;40.17
27425;BME280;15244;49.088;11.886;2023-03-23T14:04:31;95265.09;;;18.33;39.73
27425;BME280;15244;49.088;11.886;2023-03-23T14:09:38;95251.44;;;18.29;39.63
27425;BME280;15244;49.088;11.886;2023-03-23T14:14:42;95250.09;;;18.34;39.83
27425;BME280;15244;49.088;11.886;2023-03-23T14:19:52;95252.28;;;18.39;39.66
27425;BME280;15244;49.088;11.886;2023-03-23T14:25:02;95248.28;;;18.40;39.76
27425;BME280;15244;49.088;11.886;2023-03-23T14:30:15;95251.19;;;18.36;39.70
27425;BME280;15244;49.088;11.886;2023-03-23T14:35:34;95236.16;;;18.37;39.75
27425;BME280;15244;49.088;11.886;2023-03-23T14:40:43;95240.78;;;18.40;39.59
27425;BME280;15244;49.088;11.886;2023-03-23T14:45:45;95234.50;;;18.40;39.59
27425;BME280;15244;49.088;11.886;2023-03-23T14:50:52;95241.63;;;18.50;39.66
27425;BME280;15244;49.088;11.886;2023-03-23T14:56:00;95235.88;;;18.57;39.61
27425;BME280;15244;49.088;11.886;2023-03-23T15:01:09;95242.81;;;18.62;39.52
27425;BME280;15244;49.088;11.886;2023-03-23T15:06:17;95237.31;;;18.62;39.47
27425;BME280;15244;49.088;11.886;2023-03-23T15:11:31;95234.09;;;18.63;39.49
27425;BME280;15244;49.088;11.886;2023-03-23T15:16:35;95239.63;;;18.63;39.86
27425;BME280;15244;49.088;11.886;2023-03-23T15:21:50;95231.63;;;18.66;39.59
27425;BME280;15244;49.088;11.886;2023-03-23T15:26:53;95240.72;;;18.66;39.57
27425;BME280;15244;49.088;11.886;2023-03-23T15:31:55;95232.72;;;18.68;39.79
27425;BME280;15244;49.088;11.886;2023-03-23T15:37:03;95233.06;;;18.70;39.52
27425;BME280;15244;49.088;11.886;2023-03-23T15:42:05;95211.44;;;18.69;39.66
27425;BME280;15244;49.088;11.886;2023-03-23T15:47:15;95223.34;;;18.66;39.60
27425;BME280;15244;49.088;11.886;2023-03-23T15:52:16;95226.59;;;18.64;39.83
27425;BME280;15244;49.088;11.886;2023-03-23T15:57:17;95226.13;;;18.66;39.67
27425;BME280;15244;49.088;11.886;2023-03-23T16:02:21;95214.13;;;18.59;39.83
27425;BME280;15244;49.088;11.886;2023-03-23T16:07:30;95217.78;;;18.56;39.97
27425;BME280;15244;49.088;11.886;2023-03-23T16:12:34;95209.50;;;18.56;39.85
27425;BME280;15244;49.088;11.886;2023-03-23T16:17:36;95216.44;;;18.61;39.65
27425;BME280;15244;49.088;11.886;2023-03-23T16:22:40;95231.00;;;18.61;39.85
27425;BME280;15244;49.088;11.886;2023-03-23T16:27:42;95233.78;;;18.61;40.00
27425;BME280;15244;49.088;11.886;2023-03-23T16:32:44;95239.63;;;18.63;40.03
27425;BME280;15244;49.088;11.886;2023-03-23T16:37:51;95241.16;;;18.65;40.03
27425;BME280;15244;49.088;11.886;2023-03-23T16:43:09;95238.41;;;18.65;39.90
27425;BME280;15244;49.088;11.886;2023-03-23T16:48:13;95237.97;;;18.66;39.82
27425;BME280;15244;49.088;11.886;2023-03-23T16:53:23;95252.06;;;18.68;39.92
27425;BME280;15244;49.088;11.886;2023-03-23T16:58:27;95244.25;;;18.67;39.83
27425;BME280;15244;49.088;11.886;2023-03-23T17:03:29;95232.72;;;18.68;40.01
27425;BME280;15244;49.088;11.886;2023-03-23T17:08:32;95233.19;;;18.67;39.94
27425;BME280;15244;49.088;11.886;2023-03-23T17:13:36;95235.63;;;18.65;40.03
27425;BME280;15244;49.088;11.886;2023-03-23T17:18:39;95239.28;;;18.61;40.25
27425;BME280;15244;49.088;11.886;2023-03-23T17:23:41;95246.91;;;18.57;40.30
27425;BME280;15244;49.088;11.886;2023-03-23T17:28:43;95253.78;;;18.53;40.45
27425;BME280;15244;49.088;11.886;2023-03-23T17:33:44;95254.34;;;18.48;40.56
27425;BME280;15244;49.088;11.886;2023-03-23T17:38:46;95258.56;;;18.39;40.69
27425;BME280;15244;49.088;11.886;2023-03-23T17:43:53;95263.13;;;18.33;40.94
27425;BME280;15244;49.088;11.886;2023-03-23T17:48:54;95254.63;;;18.28;40.96
27425;BME280;15244;49.088;11.886;2023-03-23T17:53:58;95261.50;;;18.23;41.08
27425;BME280;15244;49.088;11.886;2023-03-23T17:59:06;95260.06;;;18.18;41.67
27425;BME280;15244;49.088;11.886;2023-03-23T18:04:08;95268.91;;;18.13;41.95
27425;BME280;15244;49.088;11.886;2023-03-23T18:09:10;95261.19;;;18.08;42.27
27425;BME280;15244;49.088;11.886;2023-03-23T18:14:28;95254.56;;;18.06;42.78
27425;BME280;15244;49.088;11.886;2023-03-23T18:19:29;95250.72;;;18.03;42.94
27425;BME280;15244;49.088;11.886;2023-03-23T18:24:33;95243.63;;;18.02;42.75
27425;BME280;15244;49.088;11.886;2023-03-23T18:29:36;95244.88;;;18.01;42.60
27425;BME280;15244;49.088;11.886;2023-03-23T18:34:39;95248.06;;;18.00;42.02
27425;BME280;15244;49.088;11.886;2023-03-23T18:39:42;95243.56;;;17.93;42.06
27425;BME280;15244;49.088;11.886;2023-03-23T18:44:49;95233.50;;;17.86;42.01
27425;BME280;15244;49.088;11.886;2023-03-23T18:49:53;95235.59;;;17.82;42.00
27425;BME280;15244;49.088;11.886;2023-03-23T18:54:59;95229.97;;;17.73;42.36
27425;BME280;15244;49.088;11.886;2023-03-23T19:00:04;95226.47;;;17.72;42.01
27425;BME280;15244;49.088;11.886;2023-03-23T19:05:12;95222.25;;;17.68;42.50
27425;BME280;15244;49.088;11.886;2023-03-23T19:10:20;95231.72;;;17.67;42.33
27425;BME280;15244;49.088;11.886;2023-03-23T19:15:24;95238.56;;;17.62;42.16
27425;BME280;15244;49.088;11.886;2023-03-23T19:20:28;95237.25;;;17.54;42.35
27425;BME280;15244;49.088;11.886;2023-03-23T19:25:32;95224.91;;;17.46;42.34
27425;BME280;15244;49.088;11.886;2023-03-23T19:30:49;95219.59;;;17.39;42.50
27425;BME280;15244;49.088;11.886;2023-03-23T19:35:53;95214.09;;;17.39;42.79
27425;BME280;15244;49.088;11.886;2023-03-23T19:41:10;95226.22;;;17.41;42.43
27425;BME280;15244;49.088;11.886;2023-03-23T19:46:12;95230.97;;;17.41;42.72
27425;BME280;15244;49.088;11.886;2023-03-23T19:51:17;95233.84;;;17.37;42.93
27425;BME280;15244;49.088;11.886;2023-03-23T19:56:20;95225.22;;;17.35;42.80
27425;BME280;15244;49.088;11.886;2023-03-23T20:01:22;95227.66;;;17.33;43.16
27425;BME280;15244;49.088;11.886;2023-03-23T20:06:24;95234.38;;;17.32;43.08
27425;BME280;15244;49.088;11.886;2023-03-23T20:11:29;95233.81;;;17.24;43.03
27425;BME280;15244;49.088;11.886;2023-03-23T20:16:33;95227.97;;;17.09;43.13
27425;BME280;15244;49.088;11.886;2023-03-23T20:21:37;95234.56;;;16.99;43.48
27425;BME280;15244;49.088;11.886;2023-03-23T20:26:41;95236.97;;;16.97;43.46
27425;BME280;15244;49.088;11.886;2023-03-23T20:31:43;95248.53;;;16.92;43.31
27425;BME280;15244;49.088;11.886;2023-03-23T20:36:47;95242.44;;;16.84;43.22
27425;BME280;15244;49.088;11.886;2023-03-23T20:41:52;95246.16;;;16.78;43.53
27425;BME280;15244;49.088;11.886;2023-03-23T20:46:58;95241.25;;;16.69;43.65
27425;BME280;15244;49.088;11.886;2023-03-23T20:52:03;95243.66;;;16.67;43.64
27425;BME280;15244;49.088;11.886;2023-03-23T20:57:07;95235.59;;;16.60;43.71
27425;BME280;15244;49.088;11.886;2023-03-23T21:02:14;95241.44;;;16.62;43.83
27425;BME280;15244;49.088;11.886;2023-03-23T21:07:19;95241.78;;;16.64;43.70
27425;BME280;15244;49.088;11.886;2023-03-23T21:12:23;95242.91;;;16.66;43.99
27425;BME280;15244;49.088;11.886;2023-03-23T21:17:25;95229.47;;;16.68;43.74
27425;BME280;15244;49.088;11.886;2023-03-23T21:22:29;95226.28;;;16.70;43.58
27425;BME280;15244;49.088;11.886;2023-03-23T21:27:40;95220.44;;;16.68;43.75
27425;BME280;15244;49.088;11.886;2023-03-23T21:32:42;95223.63;;;16.66;43.57
27425;BME280;15244;49.088;11.886;2023-03-23T21:37:46;95226.72;;;16.68;43.63
27425;BME280;15244;49.088;11.886;2023-03-23T21:42:52;95227.50;;;16.69;43.64
27425;BME280;15244;49.088;11.886;2023-03-23T21:47:58;95222.75;;;16.69;43.68
27425;BME280;15244;49.088;11.886;2023-03-23T21:53:03;95219.91;;;16.73;43.52
27425;BME280;15244;49.088;11.886;2023-03-23T21:58:07;95220.69;;;16.74;43.94
27425;BME280;15244;49.088;11.886;2023-03-23T22:03:17;95230.13;;;16.73;43.92
27425;BME280;15244;49.088;11.886;2023-03-23T22:08:28;95211.31;;;16.71;43.84
27425;BME280;15244;49.088;11.886;2023-03-23T22:13:33;95214.50;;;16.69;43.68
27425;BME280;15244;49.088;11.886;2023-03-23T22:18:39;95213.28;;;16.71;43.90
27425;BME280;15244;49.088;11.886;2023-03-23T22:23:41;95205.38;;;16.73;43.62
27425;BME280;15244;49.088;11.886;2023-03-23T22:28:45;95205.38;;;16.73;43.65
27425;BME280;15244;49.088;11.886;2023-03-23T22:33:49;95201.97;;;16.68;43.75
27425;BME280;15244;49.088;11.886;2023-03-23T22:38:51;95201.16;;;16.68;43.47
27425;BME280;15244;49.088;11.886;2023-03-23T22:43:53;95187.84;;;16.66;43.44
27425;BME280;15244;49.088;11.886;2023-03-23T22:48:55;95197.31;;;16.65;43.67
27425;BME280;15244;49.088;11.886;2023-03-23T22:53:57;95192.91;;;16.68;43.58
27425;BME280;15244;49.088;11.886;2023-03-23T22:58:58;95193.69;;;16.68;43.52
27425;BME280;15244;49.088;11.886;2023-03-23T23:04:03;95184.22;;;16.69;43.58
27425;BME280;15244;49.088;11.886;2023-03-23T23:09:08;95177.06;;;16.72;43.59
27425;BME280;15244;49.088;11.886;2023-03-23T23:14:17;95170.34;;;16.73;43.64
27425;BME280;15244;49.088;11.886;2023-03-23T23:19:19;95164.84;;;16.73;43.33
27425;BME280;15244;49.088;11.886;2023-03-23T23:24:21;95156.59;;;16.73;43.49
27425;BME280;15244;49.088;11.886;2023-03-23T23:29:24;95160.91;;;16.74;43.48
27425;BME280;15244;49.088;11.886;2023-03-23T23:34:28;95138.13;;;16.74;43.22
27425;BME280;15244;49.088;11.886;2023-03-23T23:39:35;95155.41;;;16.74;43.71
27425;BME280;15244;49.088;11.886;2023-03-23T23:44:38;95150.31;;;16.73;43.35
27425;BME280;15244;49.088;11.886;2023-03-23T23:49:40;95148.03;;;16.71;43.61
27425;BME280;15244;49.088;11.886;2023-03-23T23:54:49;95146.81;;;16.72;43.39
27425;BME280;15244;49.088;11.886;2023-03-23T23:59:53;95137.44;;;16.69;43.47
